createdAt,value
2018-05-24T10:24:49.395Z,75.00
2018-05-24T10:27:23.614Z,75.20
2018-05-24T10:29:58.026Z,76.50
2018-05-24T10:32:32.317Z,75.20
2018-05-24T10:35:06.671Z,78.00
2018-05-24T10:37:40.778Z,76.40
2018-05-24T10:40:14.994Z,75.90
2018-05-24T10:42:49.152Z,77.20
2018-05-24T10:45:23.333Z,77.10
2018-05-24T10:47:58.475Z,76.00
2018-05-24T10:50:32.767Z,75.90
2018-05-24T10:53:07.098Z,75.90
2018-05-24T10:55:41.412Z,76.30
2018-05-24T10:58:15.596Z,74.30
2018-05-24T11:00:49.910Z,75.90
2018-05-24T11:03:24.351Z,75.20
2018-05-24T11:05:59.366Z,73.80
2018-05-24T11:08:33.538Z,75.20
2018-05-24T11:11:07.912Z,75.60
2018-05-24T11:13:42.240Z,73.70
2018-05-24T11:16:16.561Z,72.10
2018-05-24T11:18:50.821Z,74.10
2018-05-24T11:21:25.813Z,74.40
2018-05-24T11:24:00.085Z,74.30
2018-05-24T11:26:34.341Z,73.70
2018-05-24T11:29:08.632Z,76.00
2018-05-24T11:31:43.011Z,73.30
2018-05-24T11:34:17.216Z,73.20
2018-05-24T11:36:51.514Z,73.90
2018-05-24T11:39:25.933Z,73.70
2018-05-24T11:42:00.231Z,72.60
2018-05-24T11:44:34.457Z,72.30
2018-05-24T11:47:08.619Z,73.30
2018-05-24T11:49:43.543Z,71.90
2018-05-24T11:52:17.866Z,71.90
2018-05-24T11:54:51.985Z,69.20
2018-05-24T11:57:26.317Z,68.00
2018-05-24T12:00:00.713Z,69.00
2018-05-24T12:02:35.750Z,70.10
2018-05-24T12:05:09.870Z,70.10
2018-05-24T12:07:44.085Z,70.80
2018-05-24T12:10:18.227Z,68.40
2018-05-24T12:12:56.062Z,69.60
2018-05-24T12:15:30.410Z,68.60
2018-05-24T12:18:04.722Z,69.20
2018-05-24T12:20:39.231Z,66.90
2018-05-24T12:23:13.527Z,71.40
2018-05-24T12:25:47.745Z,69.40
2018-05-24T12:28:22.798Z,67.10
2018-05-24T12:30:56.915Z,67.10
2018-05-24T12:33:31.322Z,66.00
2018-05-24T12:36:05.638Z,64.60
2018-05-24T12:38:39.867Z,66.00
2018-05-24T12:41:14.054Z,60.10
2018-05-24T12:43:49.114Z,62.30
2018-05-24T12:46:23.381Z,60.60
2018-05-24T12:48:57.805Z,61.60
2018-05-24T12:51:31.938Z,61.10
2018-05-24T12:54:06.274Z,62.40
2018-05-24T12:56:40.562Z,64.60
2018-05-24T12:59:15.007Z,64.00
2018-05-24T13:01:49.116Z,63.70
2018-05-24T13:04:23.341Z,61.70
2018-05-24T13:06:57.642Z,61.10
2018-05-24T13:09:32.885Z,60.90
2018-05-24T13:12:07.034Z,61.60
2018-05-24T13:14:46.389Z,61.80
2018-05-24T13:17:20.554Z,61.60
2018-05-24T13:19:54.862Z,61.80
2018-05-24T13:22:29.827Z,59.90
2018-05-24T13:25:04.115Z,59.90
2018-05-24T13:27:38.225Z,60.20
2018-05-24T13:30:13.168Z,60.60
2018-05-24T13:32:47.443Z,60.70
2018-05-24T13:35:21.586Z,61.40
2018-05-24T13:37:55.894Z,63.50
2018-05-24T13:40:31.283Z,64.00
2018-05-24T13:43:05.463Z,64.60
2018-05-24T13:45:39.763Z,65.60
2018-05-24T13:48:15.430Z,65.60
2018-05-24T13:50:50.596Z,65.50
2018-05-24T13:53:24.979Z,65.50
2018-05-24T13:55:59.763Z,64.20
2018-05-24T13:58:34.732Z,65.70
2018-05-24T14:01:10.165Z,66.20
2018-05-24T14:03:45.093Z,67.10
2018-05-24T14:06:19.401Z,67.10
2018-05-24T14:08:54.340Z,64.60
2018-05-24T14:11:29.359Z,65.70
2018-05-24T14:14:03.559Z,65.30
2018-05-24T14:16:37.897Z,64.90
2018-05-24T14:19:12.866Z,67.70
2018-05-24T14:21:47.561Z,67.40
2018-05-24T14:24:21.673Z,66.70
2018-05-24T14:26:55.771Z,67.80
2018-05-24T14:29:29.901Z,66.20
2018-05-24T14:32:04.216Z,65.70
2018-05-24T14:34:38.497Z,65.70
2018-05-24T14:37:12.646Z,66.80
2018-05-24T14:39:46.835Z,66.00
2018-05-24T14:42:21.054Z,66.50
2018-05-24T14:44:55.246Z,67.30
2018-05-24T14:47:29.531Z,66.90
2018-05-24T14:50:03.830Z,67.70
2018-05-24T14:52:39.168Z,68.10
2018-05-24T14:55:13.330Z,68.60
2018-05-24T14:57:48.624Z,69.20
2018-05-24T15:00:22.850Z,69.20
2018-05-24T15:02:58.691Z,68.90
2018-05-24T15:05:34.110Z,67.90
2018-05-24T15:08:09.047Z,68.60
2018-05-24T15:10:43.276Z,68.50
2018-05-24T15:13:31.538Z,68.90
2018-05-24T15:16:05.854Z,68.30
2018-05-24T15:23:51.923Z,68.70
2018-05-24T15:26:27.327Z,71.30
2018-05-24T15:29:01.847Z,71.30
2018-05-24T15:31:36.783Z,72.30
2018-05-24T15:36:46.847Z,72.30
2018-05-24T15:39:21.106Z,72.50
2018-05-24T15:41:55.523Z,72.50
2018-05-24T15:44:30.708Z,72.80
2018-05-24T15:47:04.957Z,73.40
2018-05-24T15:49:39.226Z,73.80
2018-05-24T15:52:13.384Z,74.20
2018-05-24T16:33:46.149Z,78.80
2018-05-24T16:36:20.326Z,78.70
2018-05-24T16:38:54.600Z,78.80
2018-05-24T16:41:28.763Z,78.70
2018-05-24T16:44:02.964Z,77.70
2018-05-24T16:46:37.332Z,77.60
2018-05-24T16:49:11.575Z,77.20
2018-05-24T16:51:45.889Z,75.80
2018-05-24T16:54:21.002Z,75.10
2018-05-24T16:56:55.310Z,75.10
2018-05-24T16:59:29.693Z,74.80
2018-05-24T17:02:04.276Z,74.80
2018-05-24T17:04:39.208Z,75.20
2018-05-24T17:07:13.707Z,75.20
2018-05-24T17:09:47.934Z,73.50
2018-05-24T17:12:22.253Z,74.00
2018-05-24T17:14:56.561Z,74.80
2018-05-24T17:17:32.901Z,74.70
2018-05-24T17:20:07.274Z,75.20
2018-05-24T17:22:41.449Z,76.00
2018-05-24T17:25:15.835Z,75.60
2018-05-24T17:27:50.015Z,75.90
2018-05-24T17:30:24.343Z,76.50
2018-05-24T17:32:59.711Z,76.40
2018-05-24T17:35:34.014Z,76.30
2018-05-24T17:38:08.343Z,76.50
2018-05-24T17:40:43.680Z,76.70
2018-05-24T17:43:18.657Z,77.30
2018-05-24T17:45:54.262Z,77.30
2018-05-24T17:48:28.345Z,76.70
2018-05-24T17:51:02.787Z,77.00
2018-05-24T17:53:36.871Z,76.70
2018-05-24T17:56:11.051Z,76.80
2018-05-24T17:58:46.030Z,77.30
2018-05-24T18:01:20.686Z,77.20
2018-05-24T18:03:54.855Z,76.80
2018-05-24T18:06:29.267Z,76.90
2018-05-24T18:09:03.628Z,77.60
2018-05-24T18:11:37.843Z,77.50
2018-05-24T18:14:13.422Z,77.20
2018-05-24T18:16:47.606Z,77.70
2018-05-24T18:19:21.858Z,78.30
2018-05-24T18:21:56.431Z,79.00
2018-05-24T18:24:30.610Z,79.30
